Time;durP1;ratioP1;P1;durP2;ratioP2;P2;SDS_P1;SDS_P2;PMS_P1;PMS_P2;Temp;Humidity;BMP_temperature;BMP_pressure;BME280_temperature;BME280_humidity;BME280_pressure;Samples;Min_cycle;Max_cycle;Signal;HPM_P1;HPM_P2
2023/06/05 00:00:45;;;;;;;5.60;1.80;;;;;;;6.97;100.00;101788.55;105866;1256;60414;-42
2023/06/05 00:03:13;;;;;;;2.30;2.10;;;;;;;7.00;100.00;101787.40;105881;1257;60007;-42
2023/06/05 00:05:41;;;;;;;2.60;1.70;;;;;;;7.00;100.00;101780.52;105912;1258;71925;-41
2023/06/05 00:08:09;;;;;;;3.30;2.20;;;;;;;6.95;100.00;101777.70;105845;1257;65249;-42
2023/06/05 00:10:36;;;;;;;3.50;2.40;;;;;;;6.89;100.00;101777.24;105823;1256;71418;-42
2023/06/05 00:13:04;;;;;;;4.60;2.20;;;;;;;6.85;100.00;101768.60;105740;1259;60478;-42
2023/06/05 00:15:35;;;;;;;3.70;2.20;;;;;;;6.81;100.00;101767.68;105784;1257;59538;-43
2023/06/05 00:18:06;;;;;;;2.50;2.00;;;;;;;6.81;100.00;101765.09;105848;1257;71844;-45
2023/06/05 00:20:34;;;;;;;4.80;2.00;;;;;;;6.77;100.00;101761.59;105768;1260;64027;-44
2023/06/05 00:23:01;;;;;;;4.10;2.00;;;;;;;6.73;100.00;101761.35;105724;1256;71446;-43
2023/06/05 00:25:29;;;;;;;2.60;1.80;;;;;;;6.71;100.00;101761.33;105837;1253;60508;-43
2023/06/05 00:27:56;;;;;;;3.70;2.70;;;;;;;6.71;100.00;101760.98;105729;1259;59677;-43
2023/06/05 00:30:24;;;;;;;6.20;2.10;;;;;;;6.69;100.00;101758.86;105780;1259;72235;-46
2023/06/05 00:32:52;;;;;;;13.10;2.40;;;;;;;6.67;100.00;101760.01;105839;1259;65139;-43
2023/06/05 00:35:20;;;;;;;7.50;2.10;;;;;;;6.63;100.00;101755.84;105883;1258;73238;-42
2023/06/05 00:37:47;;;;;;;2.50;1.90;;;;;;;6.61;100.00;101754.09;105828;1258;61733;-42
2023/06/05 00:40:15;;;;;;;6.70;2.00;;;;;;;6.60;100.00;101753.73;105847;1251;60029;-42
2023/06/05 00:42:43;;;;;;;4.90;2.20;;;;;;;6.56;100.00;101750.22;105870;1258;71358;-42
2023/06/05 00:45:10;;;;;;;5.60;2.70;;;;;;;6.52;100.00;101750.16;105883;1254;64222;-42
2023/06/05 00:47:38;;;;;;;4.30;1.90;;;;;;;6.55;100.00;101748.68;105831;1259;72679;-41
2023/06/05 00:50:07;;;;;;;3.30;1.90;;;;;;;6.59;100.00;101744.63;105653;1258;60565;-41
2023/06/05 00:52:36;;;;;;;3.60;2.10;;;;;;;6.62;100.00;101741.23;105713;1260;59551;-42
2023/06/05 00:55:04;;;;;;;3.60;2.30;;;;;;;6.61;100.00;101738.66;105665;1259;73093;-42
2023/06/05 00:57:34;;;;;;;3.20;2.00;;;;;;;6.60;100.00;101734.02;105766;1258;66044;-42
2023/06/05 01:00:07;;;;;;;2.40;2.20;;;;;;;6.56;100.00;101733.42;105725;1260;71424;-42
2023/06/05 01:02:37;;;;;;;5.10;2.00;;;;;;;6.50;100.00;101729.54;105783;1269;60399;-42
2023/06/05 01:05:05;;;;;;;3.40;1.90;;;;;;;6.45;100.00;101726.20;105788;1260;59589;-42
2023/06/05 01:07:34;;;;;;;2.50;2.20;;;;;;;6.42;100.00;101719.27;105940;1255;71714;-42
2023/06/05 01:10:03;;;;;;;2.50;2.00;;;;;;;6.38;100.00;101720.21;105740;1258;65184;-42
2023/06/05 01:12:55;;;;;;;1.90;1.80;;;;;;;6.33;100.00;101717.20;105676;1254;72658;-42
2023/06/05 01:15:28;;;;;;;3.50;2.10;;;;;;;6.30;100.00;101712.88;105723;1254;59678;-43
2023/06/05 01:18:00;;;;;;;9.10;2.40;;;;;;;6.27;100.00;101712.29;105738;1257;60246;-43
2023/06/05 01:20:35;;;;;;;2.40;2.10;;;;;;;6.21;100.00;101708.93;105751;1254;72281;-42
2023/06/05 01:23:04;;;;;;;2.50;2.30;;;;;;;6.15;100.00;101708.11;105762;1258;64095;-42
2023/06/05 01:25:33;;;;;;;3.00;2.00;;;;;;;6.12;100.00;101700.34;105765;1257;71443;-42
2023/06/05 01:28:05;;;;;;;4.60;1.90;;;;;;;6.08;100.00;101701.81;105696;1256;61062;-43
2023/06/05 01:30:44;;;;;;;5.50;1.70;;;;;;;6.07;100.00;101702.97;105772;1252;59567;-43
2023/06/05 01:33:17;;;;;;;2.60;2.40;;;;;;;6.06;100.00;101699.88;105746;1258;73021;-42
2023/06/05 01:35:45;;;;;;;2.90;1.90;;;;;;;6.02;100.00;101700.83;105761;1252;63963;-42
2023/06/05 01:38:13;;;;;;;4.40;2.00;;;;;;;5.98;100.00;101704.33;105696;1260;71545;-42
2023/06/05 01:40:41;;;;;;;14.10;2.40;;;;;;;5.96;100.00;101697.77;105685;1254;59912;-42
2023/06/05 01:43:09;;;;;;;7.40;2.20;;;;;;;5.99;100.00;101697.64;105701;1259;59530;-43
2023/06/05 01:45:37;;;;;;;3.90;1.90;;;;;;;6.02;100.00;101697.24;105909;1253;72122;-42
2023/06/05 01:48:05;;;;;;;2.60;1.50;;;;;;;5.99;100.00;101694.58;105702;1260;65265;-42
2023/06/05 01:50:33;;;;;;;4.40;1.60;;;;;;;5.94;100.00;101695.14;105873;1254;71378;-43
2023/06/05 01:53:02;;;;;;;2.20;1.80;;;;;;;5.88;100.00;101697.25;105730;1259;60483;-42
2023/06/05 01:55:29;;;;;;;2.40;1.70;;;;;;;5.83;100.00;101698.36;105876;1257;59814;-42
2023/06/05 01:57:57;;;;;;;2.00;1.70;;;;;;;5.80;100.00;101696.23;105843;1256;72041;-42
2023/06/05 02:00:25;;;;;;;3.20;1.70;;;;;;;5.77;100.00;101695.83;105678;1252;63882;-42
2023/06/05 02:02:53;;;;;;;3.90;2.10;;;;;;;5.79;100.00;101693.14;105735;1254;72599;-42
2023/06/05 02:05:21;;;;;;;3.90;1.90;;;;;;;5.81;100.00;101683.75;105785;1258;60379;-42
2023/06/05 02:07:53;;;;;;;5.30;1.80;;;;;;;5.81;100.00;101682.21;105671;1254;59998;-42
2023/06/05 02:10:21;;;;;;;5.00;1.80;;;;;;;5.83;100.00;101682.77;105711;1255;73080;-42
2023/06/05 02:12:49;;;;;;;7.30;2.00;;;;;;;5.89;100.00;101675.69;105732;1267;63923;-42
2023/06/05 02:15:17;;;;;;;4.60;2.00;;;;;;;5.97;100.00;101675.52;105696;1257;72730;-42
2023/06/05 02:17:45;;;;;;;2.30;1.70;;;;;;;6.09;100.00;101674.74;105732;1260;60534;-42
2023/06/05 02:20:12;;;;;;;3.60;1.70;;;;;;;6.16;100.00;101670.78;105727;1256;60874;-42
2023/06/05 02:22:44;;;;;;;2.30;2.10;;;;;;;6.23;100.00;101670.55;105725;1256;72628;-42
2023/06/05 02:25:12;;;;;;;6.30;1.80;;;;;;;6.32;100.00;101668.85;105875;1258;65162;-42
2023/06/05 02:27:40;;;;;;;2.70;1.80;;;;;;;6.48;100.00;101668.61;105752;1255;71353;-42
2023/06/05 02:30:11;;;;;;;3.70;1.80;;;;;;;6.59;100.00;101671.55;105856;1253;60761;-44
2023/06/05 02:32:43;;;;;;;2.00;1.80;;;;;;;6.65;100.00;101671.31;105535;1257;60480;-42
2023/06/05 02:35:11;;;;;;;1.70;1.60;;;;;;;6.71;100.00;101667.13;105806;1256;73957;-46
2023/06/05 02:37:46;;;;;;;2.80;2.00;;;;;;;6.78;100.00;101667.08;105871;1258;65266;-46
2023/06/05 02:40:15;;;;;;;6.30;1.60;;;;;;;6.86;100.00;101667.71;105684;1259;72621;-44
2023/06/05 02:42:42;;;;;;;4.90;1.90;;;;;;;6.95;100.00;101666.83;105625;1257;61678;-42
2023/06/05 02:45:10;;;;;;;1.70;1.60;;;;;;;7.05;100.00;101669.04;105871;1251;60475;-41
2023/06/05 02:47:38;;;;;;;4.70;1.70;;;;;;;7.18;100.00;101664.60;105672;1267;74321;-41
2023/06/05 02:50:07;;;;;;;2.10;1.50;;;;;;;7.29;100.00;101657.21;105706;1257;63986;-42
2023/06/05 02:52:39;;;;;;;3.30;1.80;;;;;;;7.39;100.00;101652.89;105742;1258;72687;-42
2023/06/05 02:55:16;;;;;;;3.10;1.80;;;;;;;7.49;100.00;101649.41;105865;1257;60986;-42
2023/06/05 02:57:48;;;;;;;4.10;1.70;;;;;;;7.60;100.00;101646.14;105915;1257;60315;-42
2023/06/05 03:00:21;;;;;;;2.10;1.70;;;;;;;7.71;100.00;101642.65;105785;1257;73852;-42
2023/06/05 03:02:53;;;;;;;3.00;1.80;;;;;;;7.82;100.00;101638.83;105724;1252;65299;-42
2023/06/05 03:05:27;;;;;;;1.70;1.50;;;;;;;7.96;100.00;101633.48;105876;1257;71471;-42
2023/06/05 03:07:58;;;;;;;1.60;1.50;;;;;;;8.12;100.00;101625.92;105850;1257;60569;-42
2023/06/05 03:10:27;;;;;;;4.10;1.70;;;;;;;8.28;100.00;101622.63;105903;1254;60316;-43
2023/06/05 03:12:55;;;;;;;2.10;1.90;;;;;;;8.45;100.00;101618.85;105685;1260;73842;-42
2023/06/05 03:15:24;;;;;;;5.70;2.20;;;;;;;8.67;100.00;101619.06;105720;1259;63554;-42
2023/06/05 03:17:52;;;;;;;6.30;2.10;;;;;;;8.93;100.00;101610.30;105701;1254;72617;-42
2023/06/05 03:23:14;;;;;;;6.90;2.40;;;;;;;9.44;100.00;101608.02;102707;1292;600114;-42
2023/06/05 03:25:42;;;;;;;4.80;1.90;;;;;;;9.65;100.00;101595.87;105117;1266;60444;-41
2023/06/05 03:28:11;;;;;;;5.40;2.30;;;;;;;9.84;100.00;101596.09;105096;1264;59270;-41
2023/06/05 03:30:38;;;;;;;3.50;2.00;;;;;;;10.03;100.00;101589.24;105053;1264;71012;-42
2023/06/05 03:33:07;;;;;;;4.50;2.40;;;;;;;10.22;100.00;101586.86;105170;1264;65280;-42
2023/06/05 03:35:35;;;;;;;14.70;2.70;;;;;;;10.40;100.00;101587.05;105121;1267;71727;-42
2023/06/05 03:38:05;;;;;;;7.70;2.00;;;;;;;10.58;100.00;101591.73;105070;1264;258851;-42
2023/06/05 03:40:33;;;;;;;2.70;1.80;;;;;;;10.81;100.00;101589.81;105203;1264;59660;-43
2023/06/05 03:43:01;;;;;;;4.10;2.00;;;;;;;11.13;100.00;101587.33;105660;1260;71073;-43
2023/06/05 03:45:31;;;;;;;7.10;2.00;;;;;;;11.50;100.00;101590.66;105632;1254;63728;-43
2023/06/05 03:47:59;;;;;;;11.30;2.00;;;;;;;11.90;100.00;101597.23;105666;1260;71492;-43
2023/06/05 03:50:31;;;;;;;4.90;2.10;;;;;;;12.31;100.00;101594.73;105672;1255;60093;-43
2023/06/05 03:53:03;;;;;;;11.00;2.50;;;;;;;12.74;100.00;101600.44;105669;1254;59990;-43
2023/06/05 03:55:40;;;;;;;4.60;1.80;;;;;;;13.15;100.00;101597.94;105634;1254;73017;-43
2023/06/05 03:58:13;;;;;;;4.00;1.90;;;;;;;13.55;100.00;101600.62;105642;1256;63996;-44
2023/06/05 04:00:45;;;;;;;7.40;1.90;;;;;;;13.84;100.00;101612.92;105700;1255;71661;-41
2023/06/05 04:03:13;;;;;;;5.80;2.20;;;;;;;14.02;100.00;101620.48;105673;1254;60089;-42
2023/06/05 04:05:42;;;;;;;2.50;1.90;;;;;;;14.09;100.00;101633.92;105607;1259;59525;-42
2023/06/05 04:08:11;;;;;;;5.90;1.80;;;;;;;14.21;100.00;101649.38;105660;1260;72325;-42
2023/06/05 04:10:40;;;;;;;2.00;1.90;;;;;;;14.33;100.00;101673.15;105622;1260;64427;-41
2023/06/05 04:13:07;;;;;;;6.90;2.50;;;;;;;14.50;100.00;101706.76;105565;1260;72613;-42
2023/06/05 04:15:36;;;;;;;10.40;3.10;;;;;;;14.69;100.00;101751.14;105621;1257;59620;-41
2023/06/05 04:18:05;;;;;;;6.70;2.90;;;;;;;14.92;100.00;101810.76;105617;1260;59536;-41
2023/06/05 04:20:33;;;;;;;15.50;3.60;;;;;;;15.16;100.00;101894.02;105588;1258;71819;-42
2023/06/05 04:23:00;;;;;;;9.20;3.70;;;;;;;15.40;100.00;101972.10;105538;1263;65151;-42
2023/06/05 04:25:29;;;;;;;17.30;4.00;;;;;;;15.68;100.00;101999.36;105635;1257;71734;-42
2023/06/05 04:27:58;;;;;;;15.30;4.70;;;;;;;15.96;100.00;101890.30;105611;1257;59761;-42
2023/06/05 04:30:25;;;;;;;19.00;4.70;;;;;;;16.24;100.00;101617.41;105584;1257;60035;-41
2023/06/05 04:32:54;;;;;;;20.60;5.60;;;;;;;16.48;100.00;101307.27;105530;1257;73013;-43
2023/06/05 04:35:23;;;;;;;31.90;8.60;;;;;;;16.67;100.00;101104.23;105639;1257;64305;-43
2023/06/05 04:37:51;;;;;;;35.70;7.60;;;;;;;16.85;100.00;101036.69;105581;1257;73094;-43
2023/06/05 04:40:20;;;;;;;28.10;7.40;;;;;;;17.06;100.00;101060.77;105548;1257;59708;-43
2023/06/05 04:42:49;;;;;;;29.50;7.50;;;;;;;17.25;100.00;101104.88;105706;1252;60061;-43
2023/06/05 04:45:17;;;;;;;33.60;7.80;;;;;;;17.45;100.00;101139.38;105827;1252;71886;-42
2023/06/05 04:47:46;;;;;;;30.90;7.40;;;;;;;17.72;100.00;101166.88;105797;1255;64104;-43
2023/06/05 04:50:27;;;;;;;33.20;6.30;;;;;;;18.06;100.00;101192.34;105784;1254;71420;-42
2023/06/05 04:52:59;;;;;;;20.30;6.20;;;;;;;18.30;100.00;101278.77;105831;1254;60007;-41
2023/06/05 04:55:28;;;;;;;20.50;5.90;;;;;;;18.44;100.00;101328.93;105823;1254;59624;-42
2023/06/05 04:58:00;;;;;;;21.50;6.00;;;;;;;18.57;100.00;101374.74;105825;1253;73044;-41
2023/06/05 05:00:30;;;;;;;22.30;5.20;;;;;;;18.79;100.00;101391.77;105828;1254;64324;-44
2023/06/05 05:03:00;;;;;;;21.30;5.60;;;;;;;18.94;100.00;101413.92;105784;1254;71996;-47
2023/06/05 05:05:28;;;;;;;19.20;4.90;;;;;;;19.12;100.00;101425.83;105753;1257;59653;-44
2023/06/05 05:07:55;;;;;;;18.60;4.50;;;;;;;19.27;100.00;101438.72;105776;1252;59958;-44
2023/06/05 05:10:25;;;;;;;18.20;4.10;;;;;;;19.45;100.00;101452.71;105812;1257;73017;-43
2023/06/05 05:12:53;;;;;;;13.10;3.80;;;;;;;19.71;100.00;101468.34;105805;1254;65278;-44
2023/06/05 05:15:21;;;;;;;13.30;3.20;;;;;;;20.03;96.53;101452.32;105713;1258;72707;-43
2023/06/05 05:17:49;;;;;;;12.60;3.70;;;;;;;20.21;85.68;101447.33;105668;1259;60200;-47
2023/06/05 05:20:18;;;;;;;19.30;3.00;;;;;;;20.33;72.97;101417.02;105800;1257;59794;-43
2023/06/05 05:22:46;;;;;;;12.90;2.50;;;;;;;20.43;66.05;101380.48;105797;1254;73100;-43
2023/06/05 05:25:15;;;;;;;15.50;2.90;;;;;;;20.54;63.84;101389.65;105750;1252;65394;-42
2023/06/05 05:27:43;;;;;;;9.20;2.70;;;;;;;20.61;60.96;101344.60;105817;1254;71438;-43
2023/06/05 05:30:12;;;;;;;14.90;3.20;;;;;;;20.57;60.24;101370.75;105682;1259;59683;-43
2023/06/05 05:32:40;;;;;;;14.50;2.90;;;;;;;20.60;60.20;101405.85;105811;1254;60075;-43
2023/06/05 05:35:08;;;;;;;15.20;2.70;;;;;;;20.66;59.29;101387.87;105814;1252;71838;-43
2023/06/05 05:37:36;;;;;;;12.70;2.50;;;;;;;20.78;58.99;101398.00;105835;1254;64010;-42
2023/06/05 05:40:05;;;;;;;18.60;3.00;;;;;;;20.96;56.62;101299.84;105783;1254;71459;-43
2023/06/05 05:42:33;;;;;;;12.60;2.90;;;;;;;21.00;55.88;101304.39;105771;1253;60095;-43
2023/06/05 05:45:00;;;;;;;14.10;2.60;;;;;;;21.15;56.29;101348.93;105663;1255;60105;-43
2023/06/05 05:47:28;;;;;;;12.10;2.20;;;;;;;21.36;54.54;101259.98;105761;1257;73163;-45
2023/06/05 05:49:55;;;;;;;13.00;1.90;;;;;;;21.61;53.36;101204.61;105615;1257;63934;-42
2023/06/05 05:52:23;;;;;;;10.20;2.10;;;;;;;21.93;51.74;101102.81;105655;1254;72694;-49
2023/06/05 05:54:52;;;;;;;17.60;2.40;;;;;;;22.23;50.49;101025.38;105766;1254;59778;-49
2023/06/05 05:57:19;;;;;;;16.70;2.10;;;;;;;22.46;48.58;100884.29;105850;1257;59619;-44
2023/06/05 05:59:47;;;;;;;11.40;2.30;;;;;;;22.51;47.24;100785.66;105805;1257;73041;-44
2023/06/05 06:02:15;;;;;;;14.40;2.60;;;;;;;22.36;46.98;100792.36;105806;1257;65278;-44
2023/06/05 06:04:46;;;;;;;18.30;1.90;;;;;;;22.32;46.98;100839.23;105833;1253;72609;-41
2023/06/05 06:07:15;;;;;;;13.60;2.10;;;;;;;22.24;45.76;100722.30;105821;1257;60032;-42
2023/06/05 06:09:44;;;;;;;14.00;1.70;;;;;;;22.16;45.94;100770.79;105830;1253;59948;-43
2023/06/05 06:12:13;;;;;;;16.70;1.90;;;;;;;22.01;45.14;100705.66;105823;1254;73032;-42
2023/06/05 06:14:41;;;;;;;10.30;1.70;;;;;;;21.85;44.57;100656.20;105801;1257;63931;-42
2023/06/05 06:17:10;;;;;;;10.50;1.60;;;;;;;21.81;44.28;100646.98;105822;1254;71402;-42
2023/06/05 06:19:38;;;;;;;10.10;1.80;;;;;;;21.81;44.38;100652.42;105832;1254;59724;-42
2023/06/05 06:22:11;;;;;;;12.30;1.70;;;;;;;21.84;44.77;100737.94;105802;1253;59541;-42
2023/06/05 06:24:40;;;;;;;9.90;1.20;;;;;;;21.78;43.35;100570.98;105797;1253;73202;-42
2023/06/05 06:27:10;;;;;;;13.80;1.50;;;;;;;21.55;43.58;100590.24;105816;1254;65178;-42
2023/06/05 06:29:58;;;;;;;4.70;1.20;;;;;;;21.51;42.55;100509.07;105759;1257;71399;-42
2023/06/05 06:32:26;;;;;;;14.80;1.20;;;;;;;21.40;41.77;100414.64;105785;1253;59717;-43
2023/06/05 06:34:55;;;;;;;10.60;1.50;;;;;;;21.29;42.14;100473.41;105815;1254;59618;-43
2023/06/05 06:37:23;;;;;;;8.90;1.20;;;;;;;21.19;41.30;100346.81;105840;1253;71933;-43
2023/06/05 06:39:51;;;;;;;5.80;1.30;;;;;;;21.17;41.57;100433.98;105786;1254;65215;-43
2023/06/05 06:42:19;;;;;;;8.40;1.30;;;;;;;21.09;41.05;100352.39;105776;1254;72648;-43
2023/06/05 06:45:08;;;;;;;26.20;1.50;;;;;;;21.07;42.35;100522.67;105660;1254;60015;-43
2023/06/05 06:47:36;;;;;;;9.40;1.20;;;;;;;21.25;42.74;100589.30;105806;1254;59964;-43
2023/06/05 06:50:05;;;;;;;9.20;1.20;;;;;;;21.31;43.10;100648.80;105804;1254;72995;-44
2023/06/05 06:52:33;;;;;;;5.30;1.80;;;;;;;21.40;42.28;100578.23;105789;1254;63596;-43
2023/06/05 06:55:01;;;;;;;17.00;1.50;;;;;;;21.49;42.53;100607.85;105762;1254;71762;-43
2023/06/05 06:57:28;;;;;;;6.90;1.50;;;;;;;21.64;41.68;100487.02;105748;1257;59739;-43
2023/06/05 06:59:56;;;;;;;7.00;1.30;;;;;;;21.71;40.91;100398.63;105777;1254;59560;-43
2023/06/05 07:02:25;;;;;;;13.40;2.10;;;;;;;21.60;41.50;100451.30;105755;1253;72478;-43
2023/06/05 07:04:55;;;;;;;4.50;1.60;;;;;;;21.59;40.39;100354.27;105789;1257;65146;-43
2023/06/05 07:07:23;;;;;;;5.30;1.40;;;;;;;21.64;41.04;100423.45;105794;1254;71410;-43
2023/06/05 07:09:51;;;;;;;4.10;1.40;;;;;;;21.82;40.62;100366.25;105765;1254;59611;-43
2023/06/05 07:12:20;;;;;;;6.00;1.50;;;;;;;22.03;39.18;100191.13;105738;1256;59540;-43
2023/06/05 07:14:48;;;;;;;8.30;1.50;;;;;;;22.16;37.48;99939.75;105781;1257;73033;-43
2023/06/05 07:17:15;;;;;;;2.30;1.30;;;;;;;22.23;36.30;99727.65;105792;1253;64348;-43
2023/06/05 07:19:43;;;;;;;4.00;1.10;;;;;;;22.31;36.04;99690.23;105751;1253;71453;-43
2023/06/05 07:22:11;;;;;;;1.50;1.30;;;;;;;22.29;35.12;99546.16;105788;1254;59721;-43
2023/06/05 07:24:40;;;;;;;3.50;1.00;;;;;;;22.19;33.72;99351.11;105749;1257;59532;-43
2023/06/05 07:27:08;;;;;;;1.20;0.70;;;;;;;22.09;34.69;99431.12;105793;1257;73018;-43
2023/06/05 07:29:36;;;;;;;3.20;1.10;;;;;;;22.21;34.75;99492.91;105792;1258;65273;-43
2023/06/05 07:32:06;;;;;;;3.80;1.10;;;;;;;22.26;33.73;99366.70;105780;1254;71472;-44
2023/06/05 07:34:37;;;;;;;11.70;2.30;;;;;;;22.04;34.32;99420.19;105934;1256;60491;-43
2023/06/05 07:37:04;;;;;;;1.30;1.00;;;;;;;21.97;35.14;99543.64;105752;1254;60419;-43
2023/06/05 07:39:32;;;;;;;2.80;0.70;;;;;;;22.19;35.16;99585.29;105733;1257;73156;-44
2023/06/05 07:42:00;;;;;;;4.50;1.20;;;;;;;22.39;34.22;99501.20;105761;1254;64052;-43
2023/06/05 07:44:27;;;;;;;7.50;1.00;;;;;;;22.48;34.80;99513.20;105868;1254;72590;-43
2023/06/05 07:46:55;;;;;;;0.80;0.80;;;;;;;22.61;34.64;99507.04;105758;1254;60556;-43
2023/06/05 07:49:24;;;;;;;4.10;1.00;;;;;;;22.71;33.35;99347.07;105738;1257;60416;-44
2023/06/05 07:51:51;;;;;;;5.20;1.00;;;;;;;22.54;33.35;99323.54;105766;1252;73774;-44
2023/06/05 07:54:20;;;;;;;6.70;0.90;;;;;;;22.48;33.27;99300.86;105779;1254;64062;-44
2023/06/05 07:56:51;;;;;;;0.80;0.80;;;;;;;22.65;33.63;99352.14;105790;1257;72642;-44
2023/06/05 07:59:24;;;;;;;3.10;0.80;;;;;;;22.78;33.33;99340.10;105754;1257;60508;-44
2023/06/05 08:01:52;;;;;;;1.10;1.00;;;;;;;22.54;32.99;99293.14;105783;1253;60354;-44
2023/06/05 08:04:19;;;;;;;1.80;0.80;;;;;;;22.27;32.35;99205.88;105910;1254;72531;-44
2023/06/05 08:06:48;;;;;;;4.40;0.80;;;;;;;21.96;33.40;99285.95;105816;1253;64164;-44
2023/06/05 08:09:16;;;;;;;10.60;1.60;;;;;;;22.22;34.46;99474.56;105794;1254;71682;-44
2023/06/05 08:11:43;;;;;;;1.90;1.00;;;;;;;22.77;33.50;99402.12;105831;1253;60572;-44
2023/06/05 08:14:11;;;;;;;0.80;0.80;;;;;;;23.32;33.01;99311.30;105806;1253;60505;-44
2023/06/05 08:16:38;;;;;;;0.70;0.70;;;;;;;23.62;32.98;99281.17;105799;1252;72644;-44
2023/06/05 08:19:06;;;;;;;4.30;0.80;;;;;;;23.51;31.87;99133.58;105813;1254;63966;-45
2023/06/05 08:21:34;;;;;;;4.70;0.90;;;;;;;23.37;32.12;99154.38;105789;1257;72632;-44
2023/06/05 08:24:02;;;;;;;7.00;1.20;;;;;;;23.30;32.49;99176.06;105765;1254;60430;-45
2023/06/05 08:26:30;;;;;;;1.20;0.70;;;;;;;23.19;32.33;99153.36;105844;1257;60415;-44
2023/06/05 08:28:57;;;;;;;2.60;0.90;;;;;;;23.00;32.65;99194.67;105781;1252;73347;-44
2023/06/05 08:31:25;;;;;;;1.30;0.90;;;;;;;22.98;32.73;99240.59;105789;1257;64619;-44
2023/06/05 08:33:52;;;;;;;1.70;1.00;;;;;;;23.17;31.81;99148.15;105752;1254;71411;-43
2023/06/05 08:36:21;;;;;;;0.80;0.80;;;;;;;23.32;31.63;99084.87;105778;1254;60450;-44
2023/06/05 08:38:48;;;;;;;2.90;0.80;;;;;;;23.47;32.45;99162.66;105772;1256;60522;-44
2023/06/05 08:41:16;;;;;;;1.60;1.00;;;;;;;23.66;32.39;99189.46;105748;1257;72617;-44
2023/06/05 08:43:47;;;;;;;0.90;0.80;;;;;;;23.91;32.27;99160.69;105813;1257;63900;-44
2023/06/05 08:46:15;;;;;;;6.50;0.80;;;;;;;24.25;31.91;99123.11;105747;1254;71184;-43
2023/06/05 08:48:44;;;;;;;1.70;1.00;;;;;;;24.55;30.67;98949.77;105795;1253;60447;-42
2023/06/05 08:51:16;;;;;;;2.40;0.80;;;;;;;24.65;30.71;98911.58;105741;1252;61950;-43
2023/06/05 08:54:12;;;;;;;4.80;0.90;;;;;;;24.90;30.70;98923.50;105779;1253;72534;-43
2023/06/05 08:56:41;;;;;;;4.00;1.20;;;;;;;24.99;30.19;98821.01;105774;1253;64034;-43
2023/06/05 08:59:10;;;;;;;1.50;0.90;;;;;;;24.82;30.02;98784.78;105781;1254;71443;-44
2023/06/05 09:01:38;;;;;;;0.90;0.80;;;;;;;24.74;30.35;98802.70;105608;1254;60455;-44
2023/06/05 09:04:06;;;;;;;1.10;0.90;;;;;;;24.89;30.26;98825.75;105686;1254;61124;-45
2023/06/05 09:06:34;;;;;;;1.20;0.70;;;;;;;24.71;30.61;98868.95;105751;1254;73874;-44
2023/06/05 09:09:01;;;;;;;1.50;0.90;;;;;;;24.48;31.19;98963.90;105765;1258;64510;-44
2023/06/05 09:11:30;;;;;;;4.60;0.90;;;;;;;24.28;30.68;98932.11;105788;1254;72745;-44
2023/06/05 09:14:01;;;;;;;3.70;0.90;;;;;;;23.90;31.50;99008.44;105799;1257;60530;-44
2023/06/05 09:16:42;;;;;;;1.30;1.00;;;;;;;23.42;32.38;99152.36;105819;1256;60428;-44
2023/06/05 09:19:11;;;;;;;3.50;0.80;;;;;;;23.45;32.97;99249.39;105847;1253;73820;-44
2023/06/05 09:21:39;;;;;;;6.70;1.00;;;;;;;23.80;31.72;99144.95;105792;1257;63976;-44
2023/06/05 09:24:17;;;;;;;8.20;0.80;;;;;;;24.00;31.44;99080.37;105792;1257;71400;-45
2023/06/05 09:26:55;;;;;;;2.50;0.70;;;;;;;24.35;31.92;99127.60;105783;1254;60466;-44
2023/06/05 09:29:31;;;;;;;2.00;0.80;;;;;;;24.68;30.97;99023.91;105826;1252;60524;-44
2023/06/05 09:32:03;;;;;;;;;;;;;;;24.78;29.62;98847.70;105812;1259;73819;-44
2023/06/05 09:34:35;;;;;;;3.60;0.70;;;;;;;24.95;29.39;98782.80;105803;1253;65302;-44
2023/06/05 09:37:05;;;;;;;6.00;1.00;;;;;;;24.99;29.05;98677.55;105796;1254;71420;-44
2023/06/05 09:39:34;;;;;;;1.10;0.80;;;;;;;24.82;30.25;98808.79;105826;1254;60322;-44
2023/06/05 09:42:02;;;;;;;2.90;1.00;;;;;;;24.91;30.98;98931.40;105791;1254;60421;-45
2023/06/05 09:44:31;;;;;;;2.60;0.90;;;;;;;25.33;31.52;99004.52;105807;1257;72351;-45
2023/06/05 09:47:05;;;;;;;9.90;1.10;;;;;;;25.74;30.22;98851.25;105713;1254;65234;-45
2023/06/05 09:49:39;;;;;;;5.30;3.70;;;;;;;25.72;29.90;98799.01;105680;1258;72620;-43
2023/06/05 09:52:08;;;;;;;2.80;1.80;;;;;;;25.33;30.03;98780.23;105595;1254;60530;-44
2023/06/05 09:54:37;;;;;;;6.30;0.90;;;;;;;24.88;30.42;98833.52;105820;1258;60393;-47
2023/06/05 09:57:06;;;;;;;3.80;1.00;;;;;;;24.54;30.58;98872.32;105811;1253;73858;-45
2023/06/05 09:59:35;;;;;;;1.30;0.80;;;;;;;24.05;31.01;98924.58;105784;1257;64153;-44
2023/06/05 10:02:04;;;;;;;1.80;0.80;;;;;;;23.65;31.61;99018.09;105826;1258;72669;-43
2023/06/05 10:04:42;;;;;;;0.70;0.70;;;;;;;23.42;32.00;99087.07;105810;1257;60494;-43
2023/06/05 10:07:10;;;;;;;1.40;1.10;;;;;;;23.54;31.56;99093.85;105839;1255;60317;-43
2023/06/05 10:09:38;;;;;;;2.40;1.30;;;;;;;23.90;31.01;99011.03;105861;1254;72737;-43
2023/06/05 10:12:07;;;;;;;3.30;0.80;;;;;;;24.30;31.08;98990.19;105762;1255;63915;-43
2023/06/05 10:14:41;;;;;;;2.20;0.90;;;;;;;24.67;32.06;99088.94;105776;1260;71364;-44
2023/06/05 10:17:10;;;;;;;12.10;1.20;;;;;;;24.95;31.24;99059.50;105822;1255;60476;-44
2023/06/05 10:19:41;;;;;;;1.10;0.80;;;;;;;25.01;29.67;98828.69;105835;1259;60582;-45
2023/06/05 10:22:12;;;;;;;2.20;1.10;;;;;;;24.95;30.27;98852.25;105840;1254;73692;-43
2023/06/05 10:24:44;;;;;;;5.90;1.40;;;;;;;24.81;30.71;98934.88;105799;1258;65362;-44
2023/06/05 10:27:42;;;;;;;1.50;0.90;;;;;;;24.66;29.63;98796.64;105705;1259;72623;-44
2023/06/05 10:30:32;;;;;;;6.00;1.00;;;;;;;24.58;30.21;98880.67;105862;1260;60469;-45
2023/06/05 10:33:37;;;;;;;2.90;1.10;;;;;;;24.45;30.09;98839.85;105898;1253;60443;-43
2023/06/05 10:36:09;;;;;;;1.30;0.70;;;;;;;24.16;30.49;98904.80;105755;1254;72546;-44
2023/06/05 10:38:37;;;;;;;4.30;1.20;;;;;;;23.81;29.80;98829.14;105816;1258;65706;-44
2023/06/05 10:41:05;;;;;;;8.90;0.80;;;;;;;23.40;30.94;98920.98;105764;1257;72709;-44
2023/06/05 10:43:35;;;;;;;3.40;0.80;;;;;;;23.02;32.98;99160.70;105667;1255;60533;-45
2023/06/05 10:46:26;;;;;;;2.70;0.90;;;;;;;22.67;34.53;99397.14;105856;1254;60388;-45
2023/06/05 10:49:15;;;;;;;9.50;1.30;;;;;;;22.86;34.61;99501.20;105739;1253;72708;-45
2023/06/05 10:51:50;;;;;;;29.30;1.70;;;;;;;23.20;34.27;99464.20;105903;1258;65223;-45
2023/06/05 10:54:24;;;;;;;5.10;0.80;;;;;;;23.24;34.45;99494.14;105840;1253;71444;-44
2023/06/05 10:56:52;;;;;;;22.40;1.50;;;;;;;23.14;32.77;99353.34;105778;1259;60444;-44
2023/06/05 10:59:21;;;;;;;5.60;0.90;;;;;;;22.94;32.98;99356.16;105894;1255;60335;-45
2023/06/05 11:02:16;;;;;;;7.80;1.10;;;;;;;23.03;33.75;99433.86;105822;1252;72575;-44
2023/06/05 11:04:47;;;;;;;3.50;1.00;;;;;;;23.10;33.99;99498.10;105851;1257;65243;-45
2023/06/05 11:07:17;;;;;;;2.30;1.30;;;;;;;23.01;33.47;99452.83;105835;1260;72223;-45
2023/06/05 11:10:15;;;;;;;2.80;0.90;;;;;;;23.00;33.51;99440.45;105834;1254;60619;-45
2023/06/05 11:12:43;;;;;;;2.50;0.80;;;;;;;23.08;32.40;99331.52;105830;1252;60952;-45
2023/06/05 11:15:30;;;;;;;2.40;1.30;;;;;;;23.18;33.41;99389.91;105851;1254;72720;-45
2023/06/05 11:17:58;;;;;;;2.20;1.30;;;;;;;23.18;33.99;99497.95;105839;1253;63577;-44
2023/06/05 11:20:27;;;;;;;1.50;0.90;;;;;;;23.07;34.33;99516.38;105729;1260;72714;-44
2023/06/05 11:22:57;;;;;;;2.30;1.00;;;;;;;23.25;34.16;99563.79;105828;1255;60557;-44
2023/06/05 11:25:26;;;;;;;12.60;1.40;;;;;;;23.50;34.95;99601.02;105797;1257;60325;-44
2023/06/05 11:28:02;;;;;;;3.50;0.80;;;;;;;23.79;34.78;99636.27;105838;1252;72543;-44
2023/06/05 11:30:44;;;;;;;6.00;1.00;;;;;;;23.63;34.53;99585.80;105827;1257;65120;-44
2023/06/05 11:33:17;;;;;;;2.20;0.80;;;;;;;23.30;34.77;99614.57;105827;1254;71380;-44